Time;durP1;ratioP1;P1;durP2;ratioP2;P2;SDS_P1;SDS_P2;PMS_P1;PMS_P2;Temp;Humidity;BMP_temperature;BMP_pressure;BME280_temperature;BME280_humidity;BME280_pressure;Samples;Min_cycle;Max_cycle;Signal;HPM_P1;HPM_P2
2022/11/19 00:02:07;;;;;;;7.80;7.18;;;;;;;;;;5057790;28;20205;-74
2022/11/19 00:04:37;;;;;;;8.15;7.50;;;;;;;;;;5057641;28;20295;-73
2022/11/19 00:07:05;;;;;;;8.40;7.70;;;;;;;;;;5058305;28;20213;-74
2022/11/19 00:09:32;;;;;;;8.32;7.63;;;;;;;;;;5058240;28;20248;-74
2022/11/19 00:14:46;;;;;;;8.50;7.80;;;;;;;;;;5057749;28;20196;-74
2022/11/19 00:17:14;;;;;;;7.93;7.22;;;;;;;;;;5058131;28;20205;-74
2022/11/19 00:19:41;;;;;;;8.10;7.40;;;;;;;;;;5057953;28;20236;-74
2022/11/19 00:22:09;;;;;;;8.50;7.80;;;;;;;;;;5057843;28;20244;-74
2022/11/19 00:24:38;;;;;;;7.75;7.15;;;;;;;;;;5057985;28;20602;-74
2022/11/19 00:27:06;;;;;;;8.75;8.02;;;;;;;;;;5057810;28;20212;-74
2022/11/19 00:29:33;;;;;;;8.82;8.07;;;;;;;;;;5057292;28;20201;-74
2022/11/19 00:32:02;;;;;;;7.75;7.07;;;;;;;;;;5057508;28;20494;-74
2022/11/19 00:34:30;;;;;;;8.32;7.63;;;;;;;;;;5057738;28;20211;-74
2022/11/19 00:36:57;;;;;;;8.10;7.40;;;;;;;;;;5057602;28;20205;-74
2022/11/19 00:39:25;;;;;;;7.63;7.03;;;;;;;;;;5057855;28;20232;-74
2022/11/19 00:41:53;;;;;;;8.80;8.00;;;;;;;;;;5057799;28;20213;-74
2022/11/19 00:44:20;;;;;;;8.18;7.57;;;;;;;;;;5057700;28;20230;-74
2022/11/19 00:46:48;;;;;;;7.70;7.10;;;;;;;;;;5057380;28;20682;-74
2022/11/19 00:49:17;;;;;;;8.75;7.97;;;;;;;;;;5057407;28;20233;-74
2022/11/19 00:51:45;;;;;;;8.13;7.43;;;;;;;;;;5057530;28;20212;-74
2022/11/19 00:54:13;;;;;;;7.80;7.10;;;;;;;;;;5057118;28;20217;-74
2022/11/19 00:56:41;;;;;;;8.13;7.43;;;;;;;;;;5057292;28;20221;-74
2022/11/19 00:59:08;;;;;;;8.13;7.43;;;;;;;;;;5057069;28;20618;-75
2022/11/19 01:01:36;;;;;;;8.00;7.30;;;;;;;;;;5057589;28;20297;-75
2022/11/19 01:04:04;;;;;;;8.07;7.38;;;;;;;;;;5057426;28;20492;-75
2022/11/19 01:06:34;;;;;;;7.85;7.15;;;;;;;;;;5057443;28;20205;-75
2022/11/19 01:09:02;;;;;;;7.97;7.38;;;;;;;;;;5057306;28;20508;-75
2022/11/19 01:11:30;;;;;;;8.07;7.38;;;;;;;;;;5057506;28;20216;-75
2022/11/19 01:13:59;;;;;;;7.70;7.10;;;;;;;;;;5057334;28;20267;-75
2022/11/19 01:16:28;;;;;;;7.90;7.20;;;;;;;;;;5057448;28;20219;-75
2022/11/19 01:18:55;;;;;;;8.20;7.45;;;;;;;;;;5057214;28;20236;-76
2022/11/19 01:21:25;;;;;;;8.05;7.35;;;;;;;;;;5057262;28;20303;-77
2022/11/19 01:23:54;;;;;;;7.45;6.82;;;;;;;;;;5057075;28;20299;-76
2022/11/19 01:26:22;;;;;;;8.10;7.40;;;;;;;;;;5057002;28;20213;-76
2022/11/19 01:28:49;;;;;;;7.60;6.90;;;;;;;;;;5057303;28;20566;-76
2022/11/19 01:31:18;;;;;;;7.65;7.05;;;;;;;;;;5057010;28;20492;-76
2022/11/19 01:33:46;;;;;;;7.60;7.00;;;;;;;;;;5056888;28;20205;-76
2022/11/19 01:36:15;;;;;;;7.70;7.10;;;;;;;;;;5057403;28;20292;-76
2022/11/19 01:38:42;;;;;;;7.50;6.80;;;;;;;;;;5056892;28;20601;-76
2022/11/19 01:41:11;;;;;;;7.47;6.80;;;;;;;;;;5057993;28;20204;-76
2022/11/19 01:43:41;;;;;;;6.97;6.20;;;;;;;;;;5055800;28;20203;-77
2022/11/19 01:46:09;;;;;;;7.13;6.53;;;;;;;;;;5060560;28;20483;-76
2022/11/19 01:48:38;;;;;;;6.43;5.93;;;;;;;;;;5061013;28;20559;-76
2022/11/19 01:51:09;;;;;;;6.95;6.35;;;;;;;;;;5060802;28;20214;-76
2022/11/19 01:53:37;;;;;;;6.72;6.22;;;;;;;;;;5053935;28;20201;-76
2022/11/19 01:56:06;;;;;;;7.15;6.55;;;;;;;;;;5056137;28;20296;-74
2022/11/19 01:58:37;;;;;;;6.53;6.03;;;;;;;;;;5060821;28;20270;-74
2022/11/19 02:01:05;;;;;;;6.88;6.32;;;;;;;;;;5040566;28;20277;-74
2022/11/19 02:03:33;;;;;;;6.97;6.38;;;;;;;;;;5033295;28;20293;-75
2022/11/19 02:06:02;;;;;;;6.35;5.75;;;;;;;;;;5020736;28;20203;-75
2022/11/19 02:08:39;;;;;;;7.00;6.40;;;;;;;;;;5020889;28;20214;-75
2022/11/19 02:11:21;;;;;;;6.38;5.88;;;;;;;;;;5020630;28;20293;-76
2022/11/19 02:13:54;;;;;;;6.80;6.20;;;;;;;;;;5029161;28;20580;-76
2022/11/19 02:16:26;;;;;;;6.40;5.90;;;;;;;;;;5040614;28;20206;-75
2022/11/19 02:18:56;;;;;;;6.57;6.07;;;;;;;;;;5040502;28;20312;-75
2022/11/19 02:21:31;;;;;;;6.60;6.00;;;;;;;;;;5040216;28;20206;-75
2022/11/19 02:24:06;;;;;;;6.95;6.38;;;;;;;;;;5029700;28;20220;-75
2022/11/19 02:26:49;;;;;;;6.38;5.88;;;;;;;;;;5020646;28;20216;-75
2022/11/19 02:29:23;;;;;;;5.70;5.20;;;;;;;;;;5020362;28;20476;-75
2022/11/19 02:31:55;;;;;;;6.30;5.80;;;;;;;;;;5021094;28;20209;-76
2022/11/19 02:34:26;;;;;;;6.03;5.53;;;;;;;;;;5020519;28;20481;-76
2022/11/19 02:37:00;;;;;;;6.25;5.75;;;;;;;;;;5020238;28;20318;-76
2022/11/19 02:39:30;;;;;;;6.20;5.70;;;;;;;;;;5020423;28;20226;-76
2022/11/19 02:42:02;;;;;;;5.53;5.13;;;;;;;;;;5034912;28;20205;-76
2022/11/19 02:47:21;;;;;;;5.47;5.07;;;;;;;;;;5039208;28;20193;-76
2022/11/19 02:49:50;;;;;;;5.82;5.32;;;;;;;;;;5040178;28;20554;-76
2022/11/19 02:52:18;;;;;;;5.70;5.30;;;;;;;;;;5021077;28;20207;-75
2022/11/19 02:54:46;;;;;;;5.70;5.30;;;;;;;;;;5019278;28;20289;-75
2022/11/19 02:57:14;;;;;;;6.05;5.55;;;;;;;;;;5019562;28;20212;-75
2022/11/19 03:05:22;;;;;;;5.53;5.10;;;;;;;;;;5039336;28;20232;-75
2022/11/19 03:07:50;;;;;;;5.65;5.15;;;;;;;;;;5039486;28;20209;-75
2022/11/19 03:10:20;;;;;;;5.65;5.20;;;;;;;;;;5050408;28;20197;-75
2022/11/19 03:12:50;;;;;;;5.40;5.00;;;;;;;;;;5058816;28;20249;-75
2022/11/19 03:18:13;;;;;;;5.50;5.10;;;;;;;;;;5058943;28;20197;-75
2022/11/19 03:20:42;;;;;;;5.57;5.07;;;;;;;;;;5044605;28;20226;-76
2022/11/19 03:23:12;;;;;;;5.15;4.75;;;;;;;;;;5038855;28;20496;-75
2022/11/19 03:25:42;;;;;;;5.00;4.60;;;;;;;;;;5038959;28;20205;-75
2022/11/19 03:28:13;;;;;;;4.68;4.30;;;;;;;;;;5038749;28;20221;-76
2022/11/19 03:30:41;;;;;;;5.53;5.03;;;;;;;;;;5052790;28;20544;-75
2022/11/19 03:33:11;;;;;;;5.20;4.80;;;;;;;;;;5058672;28;20212;-75
2022/11/19 03:35:41;;;;;;;5.32;4.88;;;;;;;;;;5058522;28;20205;-75
2022/11/19 03:38:11;;;;;;;5.07;4.60;;;;;;;;;;5058664;28;20205;-75
2022/11/19 03:40:40;;;;;;;5.03;4.63;;;;;;;;;;5057797;28;20251;-75
2022/11/19 03:43:09;;;;;;;4.78;4.47;;;;;;;;;;5058949;28;20621;-76
2022/11/19 03:45:40;;;;;;;4.72;4.43;;;;;;;;;;5058622;28;20205;-75
2022/11/19 03:48:08;;;;;;;5.13;4.72;;;;;;;;;;5058929;28;20267;-75
2022/11/19 03:50:39;;;;;;;4.80;4.40;;;;;;;;;;5045748;28;20198;-75
2022/11/19 03:53:08;;;;;;;5.20;4.80;;;;;;;;;;5038755;28;20216;-75
2022/11/19 03:55:38;;;;;;;5.25;4.85;;;;;;;;;;5038812;28;20205;-75
2022/11/19 03:58:07;;;;;;;4.97;4.57;;;;;;;;;;5038160;28;20205;-75
2022/11/19 04:00:35;;;;;;;4.95;4.55;;;;;;;;;;5038197;28;20320;-75
2022/11/19 04:03:05;;;;;;;5.18;4.78;;;;;;;;;;5037887;28;20208;-74
2022/11/19 04:05:33;;;;;;;4.47;4.07;;;;;;;;;;5037395;28;20288;-75
2022/11/19 04:08:00;;;;;;;4.55;4.25;;;;;;;;;;5038033;28;20525;-74
2022/11/19 04:10:30;;;;;;;5.10;4.70;;;;;;;;;;5038982;28;20209;-75
2022/11/19 04:12:57;;;;;;;4.75;4.40;;;;;;;;;;5037960;28;20205;-74
2022/11/19 04:15:25;;;;;;;4.55;4.25;;;;;;;;;;5038146;28;20579;-74
2022/11/19 04:17:53;;;;;;;4.43;4.13;;;;;;;;;;5038215;28;20216;-74
2022/11/19 04:20:21;;;;;;;4.80;4.40;;;;;;;;;;5037852;28;20226;-75
2022/11/19 04:22:51;;;;;;;4.90;4.50;;;;;;;;;;5038064;28;20202;-75
2022/11/19 04:25:19;;;;;;;4.60;4.30;;;;;;;;;;5037910;28;20216;-75
2022/11/19 04:27:48;;;;;;;4.40;4.10;;;;;;;;;;5037986;28;20205;-75
2022/11/19 04:30:16;;;;;;;4.43;4.13;;;;;;;;;;5046289;28;20298;-76
2022/11/19 04:32:44;;;;;;;4.38;4.07;;;;;;;;;;5057180;28;20300;-76
2022/11/19 04:35:12;;;;;;;4.40;4.10;;;;;;;;;;5057721;28;20509;-75
2022/11/19 04:37:40;;;;;;;4.22;3.92;;;;;;;;;;5057977;28;20244;-75
2022/11/19 04:40:09;;;;;;;4.18;3.88;;;;;;;;;;5049287;28;20229;-74
2022/11/19 04:42:36;;;;;;;4.72;4.43;;;;;;;;;;5037685;28;20301;-75
2022/11/19 04:45:06;;;;;;;4.22;3.92;;;;;;;;;;5037698;28;20595;-74
2022/11/19 04:47:34;;;;;;;4.45;4.15;;;;;;;;;;5037521;28;20340;-75
2022/11/19 04:50:01;;;;;;;4.45;4.15;;;;;;;;;;5043374;28;20216;-74
2022/11/19 04:52:29;;;;;;;4.70;4.30;;;;;;;;;;5057070;28;20213;-75
2022/11/19 04:54:57;;;;;;;4.45;4.15;;;;;;;;;;5057715;28;20414;-74
2022/11/19 04:57:24;;;;;;;4.50;4.20;;;;;;;;;;5057115;28;20216;-73
2022/11/19 04:59:52;;;;;;;4.47;4.18;;;;;;;;;;5051644;28;20244;-73
2022/11/19 05:02:20;;;;;;;4.20;3.90;;;;;;;;;;5037009;28;20236;-74
2022/11/19 05:04:48;;;;;;;4.70;4.40;;;;;;;;;;5037530;28;20205;-73
2022/11/19 05:07:15;;;;;;;4.65;4.25;;;;;;;;;;5036617;28;20300;-75
2022/11/19 05:09:43;;;;;;;5.00;4.60;;;;;;;;;;5040076;28;20604;-75
2022/11/19 05:12:10;;;;;;;4.40;4.10;;;;;;;;;;5056973;28;20225;-75
2022/11/19 05:14:38;;;;;;;4.32;4.03;;;;;;;;;;5057209;28;20205;-75
2022/11/19 05:17:05;;;;;;;4.15;3.85;;;;;;;;;;5056552;28;20694;-76
2022/11/19 05:19:34;;;;;;;4.50;4.10;;;;;;;;;;5055169;28;20299;-76
2022/11/19 05:22:01;;;;;;;4.15;3.85;;;;;;;;;;5036629;28;20487;-76
2022/11/19 05:24:29;;;;;;;4.30;4.00;;;;;;;;;;5036915;28;20292;-75
2022/11/19 05:26:56;;;;;;;4.85;4.45;;;;;;;;;;5036670;28;20505;-76
2022/11/19 05:29:23;;;;;;;4.22;3.92;;;;;;;;;;5037221;28;20210;-75
2022/11/19 05:31:51;;;;;;;4.88;4.47;;;;;;;;;;5056886;28;20523;-75
2022/11/19 05:34:18;;;;;;;4.20;3.83;;;;;;;;;;5056703;28;20219;-75
2022/11/19 05:36:47;;;;;;;4.72;4.40;;;;;;;;;;5056710;28;20485;-75
2022/11/19 05:39:14;;;;;;;4.00;3.70;;;;;;;;;;5057233;28;20600;-75
2022/11/19 05:41:41;;;;;;;4.40;4.10;;;;;;;;;;5055828;28;20233;-76
2022/11/19 05:44:09;;;;;;;3.88;3.58;;;;;;;;;;5056659;28;20215;-76
2022/11/19 05:46:36;;;;;;;4.28;3.97;;;;;;;;;;5056965;28;20588;-76
2022/11/19 05:49:04;;;;;;;4.35;4.05;;;;;;;;;;5055887;28;20205;-76
2022/11/19 05:51:31;;;;;;;4.80;4.40;;;;;;;;;;5055611;28;20210;-76
2022/11/19 05:54:00;;;;;;;4.50;4.20;;;;;;;;;;5056109;28;20209;-76
2022/11/19 05:56:27;;;;;;;4.45;4.13;;;;;;;;;;5056742;28;20215;-76
2022/11/19 05:58:55;;;;;;;4.70;4.30;;;;;;;;;;5056123;28;20205;-76
2022/11/19 06:01:25;;;;;;;4.15;3.85;;;;;;;;;;5040118;28;20638;-76
2022/11/19 06:03:53;;;;;;;3.90;3.60;;;;;;;;;;5037003;28;20520;-74
2022/11/19 06:06:20;;;;;;;4.25;3.88;;;;;;;;;;5036965;28;20210;-74
2022/11/19 06:08:48;;;;;;;4.43;4.10;;;;;;;;;;5036349;28;20205;-74
2022/11/19 06:14:00;;;;;;;3.92;3.70;;;;;;;;;;5035865;28;20201;-77
2022/11/19 06:16:27;;;;;;;4.28;3.97;;;;;;;;;;5036526;28;20252;-76
2022/11/19 06:18:55;;;;;;;4.30;4.00;;;;;;;;;;5036294;28;20268;-76
2022/11/19 06:21:22;;;;;;;4.18;3.88;;;;;;;;;;5051299;28;20323;-75
2022/11/19 06:23:50;;;;;;;4.35;4.05;;;;;;;;;;5056275;28;20263;-75
2022/11/19 06:26:24;;;;;;;4.20;3.90;;;;;;;;;;5055429;28;20205;-76
2022/11/19 06:28:51;;;;;;;4.25;3.95;;;;;;;;;;5057927;28;20541;-76
2022/11/19 06:31:19;;;;;;;4.30;3.90;;;;;;;;;;5044423;28;20510;-75
2022/11/19 06:33:46;;;;;;;3.95;3.65;;;;;;;;;;5039400;28;20569;-76
2022/11/19 06:36:14;;;;;;;4.50;4.20;;;;;;;;;;5039562;28;20209;-76
2022/11/19 06:38:41;;;;;;;4.38;4.05;;;;;;;;;;5039628;28;20209;-75
2022/11/19 06:41:09;;;;;;;4.25;3.95;;;;;;;;;;5052124;28;20610;-76
2022/11/19 06:43:38;;;;;;;4.43;4.10;;;;;;;;;;5059745;28;20207;-76
2022/11/19 06:46:06;;;;;;;4.50;4.20;;;;;;;;;;5059528;28;20583;-76
2022/11/19 06:48:34;;;;;;;4.70;4.30;;;;;;;;;;5059598;28;20205;-76
2022/11/19 06:51:01;;;;;;;4.40;4.10;;;;;;;;;;5046816;28;20208;-76
2022/11/19 06:53:29;;;;;;;4.30;4.00;;;;;;;;;;5039561;28;20206;-76
2022/11/19 06:55:56;;;;;;;4.25;3.95;;;;;;;;;;5039660;28;20210;-76
2022/11/19 06:58:24;;;;;;;4.35;4.05;;;;;;;;;;5039575;28;20213;-76
2022/11/19 07:00:53;;;;;;;4.20;3.90;;;;;;;;;;5049391;28;20325;-76
2022/11/19 07:03:20;;;;;;;4.30;4.00;;;;;;;;;;5059370;28;20220;-76
2022/11/19 07:05:48;;;;;;;4.43;4.13;;;;;;;;;;5058742;28;20240;-76
2022/11/19 07:08:15;;;;;;;4.35;4.05;;;;;;;;;;5058814;28;20605;-76
2022/11/19 07:10:43;;;;;;;4.60;4.20;;;;;;;;;;5049825;28;20198;-75
2022/11/19 07:13:10;;;;;;;4.30;4.00;;;;;;;;;;5039543;28;20220;-76
2022/11/19 07:15:38;;;;;;;4.05;3.75;;;;;;;;;;5039180;28;20301;-76
2022/11/19 07:18:07;;;;;;;4.60;4.20;;;;;;;;;;5039307;28;20212;-75
2022/11/19 07:20:34;;;;;;;5.00;4.70;;;;;;;;;;5045794;28;20221;-76
2022/11/19 07:23:01;;;;;;;4.38;4.05;;;;;;;;;;5059152;28;20205;-75
2022/11/19 07:25:29;;;;;;;4.38;4.07;;;;;;;;;;5058490;28;20205;-76
2022/11/19 07:27:56;;;;;;;4.20;3.90;;;;;;;;;;5058055;28;20216;-76
2022/11/19 07:30:23;;;;;;;4.63;4.22;;;;;;;;;;5051742;28;20279;-76
2022/11/19 07:32:53;;;;;;;4.10;3.80;;;;;;;;;;5037266;28;20205;-74
2022/11/19 07:35:22;;;;;;;4.32;4.03;;;;;;;;;;5038356;28;20206;-74
2022/11/19 07:37:49;;;;;;;4.05;3.75;;;;;;;;;;5038237;28;20217;-73
2022/11/19 07:40:17;;;;;;;4.38;4.03;;;;;;;;;;5042549;28;20212;-74
2022/11/19 07:42:49;;;;;;;4.70;4.40;;;;;;;;;;5058243;28;20216;-75
2022/11/19 07:45:16;;;;;;;4.25;3.95;;;;;;;;;;5057190;28;20545;-75
2022/11/19 07:47:44;;;;;;;4.57;4.28;;;;;;;;;;5057767;28;20201;-75
2022/11/19 07:50:12;;;;;;;4.43;4.13;;;;;;;;;;5054016;28;20198;-75
2022/11/19 07:52:42;;;;;;;4.32;4.03;;;;;;;;;;5037408;28;20209;-76
2022/11/19 07:55:10;;;;;;;4.72;4.32;;;;;;;;;;5037108;28;20205;-74
2022/11/19 07:57:37;;;;;;;4.47;4.07;;;;;;;;;;5037260;28;20207;-74
2022/11/19 08:00:05;;;;;;;4.53;4.22;;;;;;;;;;5037284;28;20233;-74
2022/11/19 08:02:33;;;;;;;4.85;4.43;;;;;;;;;;5037451;28;20204;-75
2022/11/19 08:05:00;;;;;;;4.65;4.25;;;;;;;;;;5036938;28;20228;-76
2022/11/19 08:07:27;;;;;;;4.15;3.85;;;;;;;;;;5037936;28;20234;-75
2022/11/19 08:09:56;;;;;;;4.88;4.47;;;;;;;;;;5038051;28;20205;-75
2022/11/19 08:12:23;;;;;;;4.20;3.90;;;;;;;;;;5037221;28;20197;-75
2022/11/19 08:14:51;;;;;;;4.15;3.85;;;;;;;;;;5037094;28;20213;-75
2022/11/19 08:20:03;;;;;;;4.68;4.28;;;;;;;;;;5054704;28;20251;-76
2022/11/19 08:22:30;;;;;;;4.60;4.20;;;;;;;;;;5036409;28;20236;-75
2022/11/19 08:24:59;;;;;;;4.43;4.13;;;;;;;;;;5036686;28;20205;-75
2022/11/19 08:27:26;;;;;;;4.30;4.00;;;;;;;;;;5036769;28;20212;-75
2022/11/19 08:29:54;;;;;;;4.15;3.85;;;;;;;;;;5036956;28;20252;-74
2022/11/19 08:32:22;;;;;;;4.28;3.97;;;;;;;;;;5036626;28;20202;-74
2022/11/19 08:34:49;;;;;;;4.57;4.18;;;;;;;;;;5037347;28;20490;-73
2022/11/19 08:37:17;;;;;;;4.30;4.00;;;;;;;;;;5036756;28;20202;-74
2022/11/19 08:39:44;;;;;;;4.25;3.95;;;;;;;;;;5036576;28;20230;-74
2022/11/19 08:44:58;;;;;;;4.80;4.40;;;;;;;;;;5056631;28;20196;-74
2022/11/19 08:47:25;;;;;;;4.40;4.10;;;;;;;;;;5056211;28;20215;-74
2022/11/19 08:49:52;;;;;;;4.13;3.83;;;;;;;;;;5055731;28;20208;-74
2022/11/19 08:52:20;;;;;;;4.47;4.15;;;;;;;;;;5035505;28;20193;-74
2022/11/19 08:54:47;;;;;;;4.60;4.20;;;;;;;;;;5036235;28;20216;-74
2022/11/19 08:57:16;;;;;;;4.40;4.10;;;;;;;;;;5035369;28;20215;-73
2022/11/19 08:59:43;;;;;;;4.75;4.35;;;;;;;;;;5035919;28;20525;-74
2022/11/19 09:02:11;;;;;;;4.90;4.50;;;;;;;;;;5053486;28;20624;-74
2022/11/19 09:04:38;;;;;;;4.28;3.97;;;;;;;;;;5055473;28;20205;-74
2022/11/19 09:07:05;;;;;;;4.30;3.90;;;;;;;;;;5056377;28;20211;-74
2022/11/19 09:09:33;;;;;;;4.50;4.10;;;;;;;;;;5055550;28;20205;-74
2022/11/19 09:12:01;;;;;;;4.13;3.83;;;;;;;;;;5038724;28;20193;-74
2022/11/19 09:14:32;;;;;;;4.47;4.18;;;;;;;;;;5035692;28;20206;-74
2022/11/19 09:16:59;;;;;;;4.47;4.07;;;;;;;;;;5035744;28;20206;-74
2022/11/19 09:19:27;;;;;;;4.53;4.22;;;;;;;;;;5035842;28;20500;-74
2022/11/19 09:21:54;;;;;;;4.47;4.15;;;;;;;;;;5035433;28;20222;-75
2022/11/19 09:24:22;;;;;;;4.38;4.03;;;;;;;;;;5034527;28;20598;-74
2022/11/19 09:26:49;;;;;;;4.57;4.28;;;;;;;;;;5035143;28;20491;-74
2022/11/19 09:29:16;;;;;;;4.93;4.53;;;;;;;;;;5035528;28;20209;-74
2022/11/19 09:31:45;;;;;;;4.13;3.83;;;;;;;;;;5048534;28;20482;-74
2022/11/19 09:34:13;;;;;;;4.45;4.15;;;;;;;;;;5055532;28;20705;-74
2022/11/19 09:36:40;;;;;;;4.72;4.32;;;;;;;;;;5054749;28;20652;-74
2022/11/19 09:39:08;;;;;;;4.25;3.95;;;;;;;;;;5055265;28;20205;-74
2022/11/19 09:41:42;;;;;;;4.20;3.90;;;;;;;;;;5055326;28;20225;-74
2022/11/19 09:44:15;;;;;;;4.45;4.10;;;;;;;;;;5043843;28;20232;-74
2022/11/19 09:46:46;;;;;;;4.68;4.28;;;;;;;;;;5035482;28;20520;-74
2022/11/19 09:49:17;;;;;;;4.60;4.28;;;;;;;;;;5035321;28;20211;-74
2022/11/19 09:51:49;;;;;;;4.82;4.43;;;;;;;;;;5048285;28;20207;-73
2022/11/19 09:54:17;;;;;;;4.18;3.88;;;;;;;;;;5054483;28;20203;-74
2022/11/19 09:56:45;;;;;;;4.35;4.00;;;;;;;;;;5044860;28;20198;-74
2022/11/19 09:59:17;;;;;;;4.75;4.35;;;;;;;;;;5034156;28;20233;-74
2022/11/19 10:01:44;;;;;;;5.28;4.85;;;;;;;;;;5047882;28;20278;-74
2022/11/19 10:04:12;;;;;;;4.95;4.53;;;;;;;;;;5058402;28;20215;-73
2022/11/19 10:06:47;;;;;;;4.85;4.45;;;;;;;;;;5059006;28;20205;-74
2022/11/19 10:09:25;;;;;;;4.50;4.20;;;;;;;;;;5058353;28;20240;-74
2022/11/19 10:11:56;;;;;;;4.70;4.40;;;;;;;;;;5044293;28;20197;-74
2022/11/19 10:14:36;;;;;;;4.70;4.30;;;;;;;;;;5038737;28;20198;-74
2022/11/19 10:17:11;;;;;;;4.50;4.20;;;;;;;;;;5038044;28;20315;-74
2022/11/19 10:19:44;;;;;;;4.88;4.47;;;;;;;;;;5038319;28;20201;-74
2022/11/19 10:22:18;;;;;;;4.45;4.05;;;;;;;;;;5039732;28;20229;-74
2022/11/19 10:24:45;;;;;;;4.70;4.30;;;;;;;;;;5057576;28;20291;-74
2022/11/19 10:27:19;;;;;;;4.22;3.88;;;;;;;;;;5057983;28;20522;-74
2022/11/19 10:29:48;;;;;;;4.60;4.20;;;;;;;;;;5057748;28;20197;-74
2022/11/19 10:32:22;;;;;;;4.30;4.00;;;;;;;;;;5056917;28;20201;-74
2022/11/19 10:34:52;;;;;;;5.28;4.78;;;;;;;;;;5057483;28;20204;-74
2022/11/19 10:37:25;;;;;;;18.90;17.50;;;;;;;;;;5055522;28;20201;-74
2022/11/19 10:39:56;;;;;;;14.73;13.52;;;;;;;;;;5037664;28;20198;-74
2022/11/19 10:42:27;;;;;;;13.95;12.75;;;;;;;;;;5037124;28;20328;-74
2022/11/19 10:44:56;;;;;;;13.35;12.35;;;;;;;;;;5036915;28;20212;-74
2022/11/19 10:47:32;;;;;;;12.65;11.65;;;;;;;;;;5037338;28;20714;-74
2022/11/19 10:50:00;;;;;;;12.68;11.57;;;;;;;;;;5037278;28;20206;-74
2022/11/19 10:52:30;;;;;;;12.60;11.50;;;;;;;;;;5040527;28;20199;-74
2022/11/19 10:55:00;;;;;;;11.55;10.65;;;;;;;;;;5057461;28;20205;-74
2022/11/19 10:57:29;;;;;;;10.85;9.95;;;;;;;;;;5057800;28;20205;-74
2022/11/19 10:59:57;;;;;;;11.52;10.63;;;;;;;;;;5056786;28;20682;-74
2022/11/19 11:02:30;;;;;;;11.30;10.40;;;;;;;;;;5056039;28;20228;-74
2022/11/19 11:05:07;;;;;;;10.95;10.05;;;;;;;;;;5044068;28;20201;-74
2022/11/19 11:07:52;;;;;;;16.45;15.02;;;;;;;;;;5046489;28;20198;-74
2022/11/19 11:10:44;;;;;;;14.40;13.10;;;;;;;;;;5041681;28;20606;-74
2022/11/19 11:16:19;;;;;;;12.75;11.55;;;;;;;;;;5045658;28;20254;-74
2022/11/19 11:18:47;;;;;;;12.23;11.05;;;;;;;;;;5041912;28;20204;-74
2022/11/19 11:21:23;;;;;;;12.05;11.02;;;;;;;;;;5037685;28;20587;-74
2022/11/19 11:23:51;;;;;;;11.07;10.13;;;;;;;;;;5048594;28;20197;-74
2022/11/19 11:26:21;;;;;;;11.48;10.48;;;;;;;;;;5045376;28;20198;-74
2022/11/19 11:28:54;;;;;;;11.82;10.68;;;;;;;;;;5037124;28;20604;-74
2022/11/19 11:31:30;;;;;;;11.13;10.13;;;;;;;;;;5039378;28;20198;-74
2022/11/19 11:33:58;;;;;;;13.00;11.88;;;;;;;;;;5039493;28;20263;-74
2022/11/19 11:36:27;;;;;;;12.73;11.73;;;;;;;;;;5050035;28;20496;-74
2022/11/19 11:38:55;;;;;;;12.23;11.00;;;;;;;;;;5036681;28;20495;-74
2022/11/19 11:41:25;;;;;;;11.63;10.52;;;;;;;;;;5035585;28;20201;-74
2022/11/19 11:44:01;;;;;;;11.60;10.60;;;;;;;;;;5035421;28;20576;-74
2022/11/19 11:46:36;;;;;;;10.90;9.90;;;;;;;;;;5036341;28;20220;-74
2022/11/19 11:49:04;;;;;;;10.90;9.93;;;;;;;;;;5036365;28;20205;-74
2022/11/19 11:51:34;;;;;;;10.48;9.25;;;;;;;;;;5036065;28;20597;-74
2022/11/19 11:54:05;;;;;;;9.98;9.10;;;;;;;;;;5035705;28;20212;-74
2022/11/19 11:56:32;;;;;;;9.82;9.02;;;;;;;;;;5035829;28;20213;-74
2022/11/19 11:59:14;;;;;;;9.45;8.55;;;;;;;;;;5034879;28;20229;-74
2022/11/19 12:01:43;;;;;;;9.98;8.68;;;;;;;;;;5035183;28;20229;-74
2022/11/19 12:04:13;;;;;;;9.52;8.73;;;;;;;;;;5035025;28;20233;-74
2022/11/19 12:06:44;;;;;;;10.15;9.20;;;;;;;;;;5040782;28;20193;-74
2022/11/19 12:09:17;;;;;;;9.13;8.32;;;;;;;;;;5054891;28;20201;-74
2022/11/19 12:11:57;;;;;;;9.82;8.40;;;;;;;;;;5054716;28;20215;-74
2022/11/19 12:14:26;;;;;;;9.40;8.57;;;;;;;;;;5054648;28;20207;-74
2022/11/19 12:17:11;;;;;;;144.20;96.05;;;;;;;;;;5042783;28;20216;-74
2022/11/19 12:19:57;;;;;;;257.13;168.38;;;;;;;;;;5034496;28;20617;-74
2022/11/19 12:22:28;;;;;;;187.43;126.28;;;;;;;;;;5054551;28;20239;-74
2022/11/19 12:25:06;;;;;;;161.45;108.95;;;;;;;;;;5055572;28;20246;-74
2022/11/19 12:27:38;;;;;;;150.25;102.97;;;;;;;;;;5053692;28;20215;-74
2022/11/19 12:30:09;;;;;;;144.88;99.40;;;;;;;;;;5054330;28;20208;-75
2022/11/19 12:33:00;;;;;;;144.90;97.88;;;;;;;;;;5055313;28;20224;-74
2022/11/19 12:35:41;;;;;;;135.02;90.18;;;;;;;;;;5038891;28;20217;-74
2022/11/19 12:38:25;;;;;;;121.75;85.53;;;;;;;;;;5034749;28;20206;-74
2022/11/19 12:40:55;;;;;;;126.38;84.65;;;;;;;;;;5035189;28;20209;-75
2022/11/19 12:43:37;;;;;;;119.75;78.53;;;;;;;;;;5035236;28;20225;-74
2022/11/19 12:46:08;;;;;;;115.45;75.55;;;;;;;;;;5033639;28;20197;-74
2022/11/19 12:48:42;;;;;;;104.57;72.18;;;;;;;;;;5035015;28;20205;-74
2022/11/19 12:51:16;;;;;;;108.70;71.63;;;;;;;;;;5034562;28;20205;-74
2022/11/19 12:53:55;;;;;;;102.90;68.40;;;;;;;;;;5054010;28;20295;-76
2022/11/19 12:56:30;;;;;;;95.55;66.55;;;;;;;;;;5054829;28;20197;-74
2022/11/19 12:59:04;;;;;;;87.05;62.35;;;;;;;;;;5055760;28;20255;-75
2022/11/19 13:01:33;;;;;;;90.55;60.47;;;;;;;;;;5054655;28;20308;-74
2022/11/19 13:04:04;;;;;;;77.63;56.80;;;;;;;;;;5054011;28;20200;-74
2022/11/19 13:06:35;;;;;;;78.03;56.45;;;;;;;;;;5053744;28;20204;-74
2022/11/19 13:09:05;;;;;;;74.72;54.03;;;;;;;;;;5054328;28;20201;-74
2022/11/19 13:11:36;;;;;;;71.50;51.83;;;;;;;;;;5050043;28;20288;-74
2022/11/19 13:14:05;;;;;;;67.80;50.13;;;;;;;;;;5035004;28;20198;-74
2022/11/19 13:16:34;;;;;;;67.07;48.50;;;;;;;;;;5048460;28;20231;-74
2022/11/19 13:19:06;;;;;;;71.15;55.75;;;;;;;;;;5054113;28;20205;-74
2022/11/19 13:21:38;;;;;;;68.93;51.85;;;;;;;;;;5053822;28;20205;-74
2022/11/19 13:24:23;;;;;;;63.58;49.20;;;;;;;;;;5053915;28;20328;-74
2022/11/19 13:26:51;;;;;;;60.45;47.60;;;;;;;;;;5054404;28;20200;-74
2022/11/19 13:29:26;;;;;;;59.22;45.28;;;;;;;;;;5054601;28;20200;-75
2022/11/19 13:31:56;;;;;;;55.97;43.80;;;;;;;;;;5054171;28;20739;-74
2022/11/19 13:34:26;;;;;;;53.55;42.42;;;;;;;;;;5036887;28;20206;-74
2022/11/19 13:36:59;;;;;;;50.78;40.83;;;;;;;;;;5034599;28;20209;-74
2022/11/19 13:39:32;;;;;;;45.55;38.15;;;;;;;;;;5037340;28;20566;-74
2022/11/19 13:44:45;;;;;;;43.88;35.88;;;;;;;;;;5038017;28;20197;-74
2022/11/19 13:47:16;;;;;;;38.63;33.08;;;;;;;;;;5038596;28;20214;-74
2022/11/19 13:49:45;;;;;;;40.80;33.70;;;;;;;;;;5037843;28;20205;-74
2022/11/19 13:52:17;;;;;;;36.63;32.13;;;;;;;;;;5038315;28;20201;-74
2022/11/19 13:54:46;;;;;;;36.25;31.08;;;;;;;;;;5037471;28;20212;-74
2022/11/19 13:57:25;;;;;;;34.63;29.23;;;;;;;;;;5038626;28;20205;-74
2022/11/19 13:59:57;;;;;;;33.00;27.88;;;;;;;;;;5036996;28;20247;-74
2022/11/19 14:02:39;;;;;;;30.88;26.55;;;;;;;;;;5037079;28;20279;-74
2022/11/19 14:05:27;;;;;;;31.42;26.95;;;;;;;;;;5035183;28;20201;-74
2022/11/19 14:08:01;;;;;;;28.20;24.08;;;;;;;;;;5037861;28;20510;-74
2022/11/19 14:10:32;;;;;;;25.73;22.80;;;;;;;;;;5038172;28;20232;-74
2022/11/19 14:13:17;;;;;;;25.95;23.15;;;;;;;;;;5037252;28;20205;-74
2022/11/19 14:27:32;;;;;;;19.10;17.13;;;;;;;;;;5057349;28;20268;-74
2022/11/19 14:30:00;;;;;;;19.88;17.70;;;;;;;;;;5056534;28;20601;-74
2022/11/19 14:32:33;;;;;;;18.42;16.50;;;;;;;;;;5057432;28;20205;-73
2022/11/19 14:35:16;;;;;;;17.48;15.63;;;;;;;;;;5057384;28;20201;-73
2022/11/19 14:37:45;;;;;;;18.58;15.13;;;;;;;;;;5042029;28;20202;-73
2022/11/19 14:40:16;;;;;;;16.48;14.80;;;;;;;;;;5037158;28;20213;-74
2022/11/19 14:45:40;;;;;;;14.82;13.23;;;;;;;;;;5035996;28;20593;-74
2022/11/19 14:48:08;;;;;;;15.88;13.68;;;;;;;;;;5036800;28;20215;-74
2022/11/19 14:50:36;;;;;;;13.10;11.80;;;;;;;;;;5036509;28;20267;-74
2022/11/19 14:53:03;;;;;;;12.57;11.38;;;;;;;;;;5036738;28;20208;-74
2022/11/19 14:55:32;;;;;;;13.32;11.90;;;;;;;;;;5037282;28;20583;-74
2022/11/19 14:58:00;;;;;;;12.23;10.98;;;;;;;;;;5036764;28;20481;-73
2022/11/19 15:00:30;;;;;;;12.45;11.15;;;;;;;;;;5045593;28;20233;-74
2022/11/19 15:03:00;;;;;;;12.05;10.95;;;;;;;;;;5056304;28;20225;-74
2022/11/19 15:05:29;;;;;;;11.52;10.43;;;;;;;;;;5056403;28;20220;-75
2022/11/19 15:08:11;;;;;;;10.30;9.30;;;;;;;;;;5056574;28;20218;-74
2022/11/19 15:10:48;;;;;;;11.15;9.98;;;;;;;;;;5055936;28;20209;-74
2022/11/19 15:13:21;;;;;;;10.52;9.52;;;;;;;;;;5057343;28;20201;-74
2022/11/19 15:15:49;;;;;;;11.23;10.23;;;;;;;;;;5054870;28;20189;-74
2022/11/19 15:18:27;;;;;;;11.18;9.98;;;;;;;;;;5040336;28;20200;-73
2022/11/19 15:21:08;;;;;;;10.15;9.25;;;;;;;;;;5035994;28;20202;-73
2022/11/19 15:23:36;;;;;;;9.82;8.88;;;;;;;;;;5036108;28;20320;-73
2022/11/19 15:26:09;;;;;;;9.85;8.95;;;;;;;;;;5039465;28;20197;-73
2022/11/19 15:28:42;;;;;;;9.98;8.98;;;;;;;;;;5055803;28;20634;-74
2022/11/19 15:31:16;;;;;;;9.27;8.38;;;;;;;;;;5049177;28;20471;-73
2022/11/19 15:34:02;;;;;;;9.20;8.30;;;;;;;;;;5041073;28;20198;-74
2022/11/19 15:36:38;;;;;;;8.50;7.70;;;;;;;;;;5040144;28;20205;-74